createdAt,value
2019-03-25T00:00:50.342Z,4.09
2019-03-25T00:03:21.516Z,4.08
2019-03-25T00:05:52.610Z,4.06
2019-03-25T00:08:23.753Z,4.07
2019-03-25T00:10:54.759Z,4.09
2019-03-25T00:13:25.907Z,4.06
2019-03-25T00:15:57.151Z,4.01
2019-03-25T00:18:29.248Z,4.04
2019-03-25T00:21:00.291Z,3.96
2019-03-25T00:23:31.326Z,3.97
2019-03-25T00:26:02.401Z,3.96
2019-03-25T00:28:33.465Z,3.90
2019-03-25T00:31:04.467Z,3.85
2019-03-25T00:33:35.520Z,3.79
2019-03-25T00:36:06.539Z,3.80
2019-03-25T00:38:37.562Z,3.81
2019-03-25T00:41:08.677Z,3.85
2019-03-25T00:43:39.780Z,3.78
2019-03-25T00:46:10.908Z,3.86
2019-03-25T00:48:42.016Z,3.82
2019-03-25T00:51:13.252Z,3.79
2019-03-25T00:53:44.399Z,3.95
2019-03-25T00:56:15.543Z,3.83
2019-03-25T00:58:46.693Z,3.79
2019-03-25T01:01:17.950Z,3.79
2019-03-25T01:03:49.021Z,3.75
2019-03-25T01:06:20.258Z,3.82
2019-03-25T01:08:51.426Z,3.83
2019-03-25T01:11:22.556Z,3.88
2019-03-25T01:13:53.981Z,3.82
2019-03-25T01:16:25.051Z,3.84
2019-03-25T01:18:56.356Z,3.81
2019-03-25T01:21:27.434Z,3.74
2019-03-25T01:23:58.487Z,3.74
2019-03-25T01:26:29.599Z,3.73
2019-03-25T01:29:00.891Z,3.64
2019-03-25T01:31:31.981Z,3.62
2019-03-25T01:34:03.072Z,3.63
2019-03-25T01:36:34.220Z,3.58
2019-03-25T01:39:06.329Z,3.59
2019-03-25T01:41:37.414Z,3.61
2019-03-25T01:44:08.468Z,3.66
2019-03-25T01:46:39.495Z,3.80
2019-03-25T01:49:10.537Z,3.68
2019-03-25T01:51:41.507Z,3.73
2019-03-25T01:54:13.557Z,3.65
2019-03-25T01:56:44.663Z,3.63
2019-03-25T01:59:15.725Z,3.58
2019-03-25T02:01:46.765Z,3.52
2019-03-25T02:04:17.912Z,3.52
2019-03-25T02:06:48.890Z,3.55
2019-03-25T02:09:19.992Z,3.53
2019-03-25T02:11:51.861Z,3.49
2019-03-25T02:14:22.909Z,3.47
2019-03-25T02:16:54.042Z,3.40
2019-03-25T02:19:25.354Z,3.40
2019-03-25T02:21:56.296Z,3.42
2019-03-25T02:24:27.489Z,3.44
2019-03-25T02:26:58.629Z,3.37
2019-03-25T02:29:29.588Z,3.32
2019-03-25T02:32:00.726Z,3.28
2019-03-25T02:34:31.696Z,3.24
2019-03-25T02:37:02.798Z,3.15
2019-03-25T02:39:33.993Z,3.05
2019-03-25T02:42:04.978Z,2.98
2019-03-25T02:44:36.013Z,2.89
2019-03-25T02:47:07.070Z,2.87
2019-03-25T02:49:38.096Z,2.77
2019-03-25T02:52:09.136Z,2.82
2019-03-25T02:54:40.104Z,2.74
2019-03-25T02:57:11.083Z,2.69
2019-03-25T02:59:42.053Z,2.65
2019-03-25T03:02:13.204Z,2.58
2019-03-25T03:04:44.245Z,2.54
2019-03-25T03:07:15.380Z,2.53
2019-03-25T03:09:46.375Z,2.50
2019-03-25T03:12:17.494Z,2.26
2019-03-25T03:14:48.514Z,2.16
2019-03-25T03:17:19.569Z,2.12
2019-03-25T03:19:50.722Z,2.15
2019-03-25T03:22:21.687Z,1.94
2019-03-25T03:24:52.783Z,1.87
2019-03-25T03:27:23.997Z,1.93
2019-03-25T03:29:55.074Z,1.84
2019-03-25T03:32:27.120Z,1.85
2019-03-25T03:34:58.204Z,1.90
2019-03-25T03:37:29.218Z,2.05
2019-03-25T03:40:00.657Z,2.13
2019-03-25T03:42:32.959Z,1.88
2019-03-25T03:45:06.155Z,1.91
2019-03-25T03:47:37.126Z,1.91
2019-03-25T03:50:08.291Z,1.87
2019-03-25T03:52:39.377Z,1.97
2019-03-25T03:55:10.395Z,2.12
2019-03-25T03:57:41.446Z,2.12
2019-03-25T04:00:15.817Z,2.18
2019-03-25T04:02:46.925Z,2.05
2019-03-25T04:05:17.898Z,2.07
2019-03-25T04:07:49.466Z,2.28
2019-03-25T04:10:21.585Z,2.43
2019-03-25T04:12:52.605Z,2.25
2019-03-25T04:15:28.483Z,2.40
2019-03-25T04:17:59.602Z,2.57
2019-03-25T04:20:30.596Z,2.59
2019-03-25T04:23:01.586Z,2.71
2019-03-25T04:25:32.659Z,2.78
2019-03-25T04:28:03.670Z,2.83
2019-03-25T04:30:34.729Z,2.91
2019-03-25T04:33:05.954Z,3.10
2019-03-25T04:35:37.012Z,3.02
2019-03-25T04:38:08.146Z,3.15
2019-03-25T04:40:40.332Z,3.20
2019-03-25T04:43:11.358Z,3.16
2019-03-25T04:45:42.399Z,3.20
2019-03-25T04:48:13.362Z,3.25
2019-03-25T04:50:44.469Z,3.32
2019-03-25T04:53:15.443Z,3.37
2019-03-25T04:55:46.551Z,3.48
2019-03-25T04:58:17.591Z,3.51
2019-03-25T05:00:48.639Z,3.44
2019-03-25T05:03:19.675Z,3.55
2019-03-25T05:05:50.760Z,3.76
2019-03-25T05:08:21.818Z,3.96
2019-03-25T05:10:53.017Z,3.88
2019-03-25T05:13:24.168Z,4.06
2019-03-25T05:15:55.201Z,4.25
2019-03-25T05:18:26.239Z,4.22
2019-03-25T05:20:57.294Z,4.15
2019-03-25T05:23:28.325Z,4.17
2019-03-25T05:25:59.431Z,4.28
2019-03-25T05:28:30.592Z,4.20
2019-03-25T05:31:01.583Z,4.17
2019-03-25T05:33:32.608Z,4.33
2019-03-25T05:36:03.632Z,4.51
2019-03-25T05:38:34.690Z,4.76
2019-03-25T05:41:05.667Z,4.75
2019-03-25T05:43:36.771Z,4.74
2019-03-25T05:46:07.982Z,4.89
2019-03-25T05:48:39.149Z,5.01
2019-03-25T05:51:10.291Z,5.03
2019-03-25T05:53:41.337Z,5.18
2019-03-25T05:56:12.381Z,5.30
2019-03-25T05:58:43.349Z,5.38
2019-03-25T06:01:14.503Z,5.46
2019-03-25T06:03:45.491Z,5.62
2019-03-25T06:06:16.551Z,5.79
2019-03-25T06:08:47.564Z,5.81
2019-03-25T06:11:18.624Z,5.98
2019-03-25T06:13:49.659Z,6.24
2019-03-25T06:16:20.724Z,6.26
2019-03-25T06:18:51.862Z,6.26
2019-03-25T06:21:23.001Z,6.36
2019-03-25T06:23:54.162Z,6.47
2019-03-25T06:26:25.306Z,6.93
2019-03-25T06:28:56.435Z,6.93
2019-03-25T06:31:27.488Z,7.07
2019-03-25T06:33:58.623Z,7.17
2019-03-25T06:36:29.805Z,7.73
2019-03-25T06:39:01.013Z,7.73
2019-03-25T06:41:32.148Z,8.01
2019-03-25T06:44:03.286Z,7.82
2019-03-25T06:46:34.464Z,7.93
2019-03-25T06:49:05.671Z,8.11
2019-03-25T06:51:36.718Z,8.19
2019-03-25T06:54:07.857Z,8.32
2019-03-25T06:56:38.957Z,8.43
2019-03-25T06:59:09.945Z,8.69
2019-03-25T07:01:41.106Z,8.72
2019-03-25T07:04:12.266Z,8.61
2019-03-25T07:06:43.469Z,8.83
2019-03-25T07:09:14.448Z,9.00
2019-03-25T07:11:45.524Z,9.18
2019-03-25T07:14:16.604Z,9.30
2019-03-25T07:16:47.827Z,9.45
2019-03-25T07:19:18.974Z,9.22
2019-03-25T07:21:50.057Z,9.29
2019-03-25T07:24:21.268Z,9.40
2019-03-25T07:26:52.428Z,9.25
2019-03-25T07:29:23.595Z,9.48
2019-03-25T07:31:54.828Z,9.43
2019-03-25T07:34:25.919Z,9.72
2019-03-25T07:36:57.117Z,9.83
2019-03-25T07:39:28.234Z,9.74
2019-03-25T07:41:59.253Z,9.69
2019-03-25T07:44:30.346Z,9.78
2019-03-25T07:47:01.490Z,10.00
2019-03-25T07:49:32.707Z,10.21
2019-03-25T07:52:03.701Z,10.47
2019-03-25T07:54:34.732Z,10.67
2019-03-25T07:57:05.760Z,10.55
2019-03-25T07:59:36.813Z,10.75
2019-03-25T08:02:07.808Z,11.08
2019-03-25T08:04:38.904Z,10.85
2019-03-25T08:07:10.213Z,11.42
2019-03-25T08:09:41.401Z,11.87
2019-03-25T08:12:12.658Z,11.85
2019-03-25T08:14:43.930Z,12.00
2019-03-25T08:17:15.021Z,12.35
2019-03-25T08:19:46.251Z,12.02
2019-03-25T08:22:17.365Z,11.95
2019-03-25T08:24:48.450Z,11.48
2019-03-25T08:27:20.403Z,11.73
2019-03-25T08:29:51.458Z,11.74
2019-03-25T08:32:22.532Z,11.64
2019-03-25T08:34:54.201Z,11.57
2019-03-25T08:37:25.416Z,11.59
2019-03-25T08:39:56.618Z,11.99
2019-03-25T08:42:27.730Z,12.06
2019-03-25T08:45:02.291Z,11.80
2019-03-25T08:47:33.627Z,11.32
2019-03-25T08:50:07.008Z,12.02
2019-03-25T08:52:38.149Z,12.13
2019-03-25T08:55:10.194Z,12.23
2019-03-25T08:57:41.481Z,12.10
2019-03-25T09:00:12.808Z,12.43
2019-03-25T09:02:43.890Z,12.37
2019-03-25T09:05:15.105Z,11.81
2019-03-25T09:07:46.135Z,12.04
2019-03-25T09:10:17.178Z,12.12
2019-03-25T09:12:48.322Z,11.97
2019-03-25T09:15:19.451Z,11.98
2019-03-25T09:17:50.608Z,12.11
2019-03-25T09:20:23.447Z,12.11
2019-03-25T09:22:54.681Z,12.11
2019-03-25T09:25:25.824Z,12.46
2019-03-25T09:27:57.972Z,12.79
2019-03-25T09:30:51.900Z,13.01
2019-03-25T09:33:23.050Z,12.74
2019-03-25T09:35:54.325Z,12.69
2019-03-25T09:38:25.567Z,12.84
2019-03-25T09:40:56.723Z,13.00
2019-03-25T09:43:27.816Z,12.65
2019-03-25T09:45:58.857Z,11.90
2019-03-25T09:48:29.927Z,12.68
2019-03-25T09:51:01.021Z,12.41
2019-03-25T09:53:32.283Z,12.62
2019-03-25T09:56:03.427Z,12.45
2019-03-25T09:58:36.468Z,12.36
2019-03-25T10:01:07.194Z,12.45
2019-03-25T10:03:38.420Z,11.77
2019-03-25T10:06:09.611Z,11.69
2019-03-25T10:08:41.875Z,12.18
2019-03-25T10:11:12.978Z,12.59
2019-03-25T10:13:44.044Z,12.79
2019-03-25T10:16:15.328Z,12.90
2019-03-25T10:18:46.554Z,13.29
2019-03-25T10:21:17.629Z,13.23
2019-03-25T10:23:49.044Z,13.34
2019-03-25T10:26:20.233Z,13.09
2019-03-25T10:28:51.376Z,12.97
2019-03-25T10:31:22.509Z,13.26
2019-03-25T10:33:53.750Z,13.48
2019-03-25T10:36:24.870Z,13.27
2019-03-25T10:38:56.020Z,13.23
2019-03-25T10:41:27.221Z,13.65
2019-03-25T10:43:58.333Z,13.55
2019-03-25T10:46:29.388Z,13.38
2019-03-25T10:49:00.522Z,13.15
2019-03-25T10:51:31.814Z,13.27
2019-03-25T10:54:03.205Z,13.12
2019-03-25T10:56:34.243Z,12.84
2019-03-25T10:59:05.396Z,13.16
2019-03-25T11:01:37.097Z,13.19
2019-03-25T11:04:08.412Z,13.15
2019-03-25T11:06:39.636Z,13.10
2019-03-25T11:09:10.792Z,13.59
2019-03-25T11:11:45.402Z,13.35
2019-03-25T11:14:16.672Z,13.22
2019-03-25T11:16:48.046Z,13.61
2019-03-25T11:19:19.527Z,13.31
2019-03-25T11:21:51.027Z,13.23
2019-03-25T11:24:22.602Z,12.94
2019-03-25T11:26:53.720Z,13.00
2019-03-25T11:29:25.121Z,12.82
2019-03-25T11:31:56.371Z,12.49
2019-03-25T11:34:27.594Z,12.44
2019-03-25T11:36:58.581Z,12.53
2019-03-25T11:39:29.747Z,12.62
2019-03-25T11:42:00.874Z,12.68
2019-03-25T11:44:32.057Z,13.00
2019-03-25T11:47:04.844Z,12.99
2019-03-25T11:49:35.984Z,13.09
2019-03-25T11:52:09.886Z,13.37
2019-03-25T11:54:41.275Z,13.12
2019-03-25T11:57:12.479Z,13.11
2019-03-25T11:59:43.610Z,12.70
2019-03-25T12:02:17.829Z,12.43
2019-03-25T12:04:47.536Z,12.52
2019-03-25T12:07:22.535Z,12.39
2019-03-25T12:09:54.547Z,12.45
2019-03-25T12:12:25.555Z,12.46
2019-03-25T12:14:56.634Z,12.58
2019-03-25T12:17:27.900Z,12.49
2019-03-25T12:19:58.992Z,12.49
2019-03-25T12:22:30.058Z,12.62
2019-03-25T12:25:01.139Z,12.79
2019-03-25T12:27:32.671Z,12.85
2019-03-25T12:30:08.971Z,13.05
2019-03-25T12:32:39.967Z,13.07
2019-03-25T12:35:11.198Z,13.24
2019-03-25T12:37:42.578Z,12.93
2019-03-25T12:40:13.945Z,12.69
2019-03-25T12:42:45.294Z,12.51
2019-03-25T12:45:16.620Z,12.29
2019-03-25T12:47:47.861Z,12.21
2019-03-25T12:50:19.098Z,12.36
2019-03-25T12:52:51.326Z,12.39
2019-03-25T12:55:22.521Z,12.26
2019-03-25T12:57:53.640Z,12.36
2019-03-25T13:00:38.886Z,12.35
2019-03-25T13:03:10.081Z,12.39
2019-03-25T13:05:41.321Z,12.11
2019-03-25T13:08:12.399Z,12.12
2019-03-25T13:10:43.643Z,12.11
2019-03-25T13:13:15.040Z,11.92
2019-03-25T13:15:46.106Z,11.89
2019-03-25T13:18:17.324Z,11.76
2019-03-25T13:20:48.602Z,11.64
2019-03-25T13:23:19.673Z,11.61
2019-03-25T13:25:55.297Z,11.72
2019-03-25T13:28:26.415Z,11.69
2019-03-25T13:30:57.627Z,11.62
2019-03-25T13:33:30.860Z,11.62
2019-03-25T13:36:01.953Z,11.72
2019-03-25T13:38:33.043Z,11.78
2019-03-25T13:41:04.194Z,11.72
2019-03-25T13:43:35.229Z,11.85
2019-03-25T13:46:06.190Z,11.97
2019-03-25T13:48:37.409Z,11.97
2019-03-25T13:51:08.542Z,11.96
2019-03-25T13:53:39.599Z,11.97
2019-03-25T13:56:10.583Z,11.94
2019-03-25T13:58:41.752Z,11.84
2019-03-25T14:01:12.897Z,11.81
2019-03-25T14:03:44.020Z,11.85
2019-03-25T14:06:15.134Z,11.70
2019-03-25T14:08:46.109Z,11.72
2019-03-25T14:11:17.350Z,11.59
2019-03-25T14:13:49.485Z,11.67
2019-03-25T14:16:20.822Z,11.53
2019-03-25T14:18:52.029Z,11.53
2019-03-25T14:21:23.106Z,11.59
2019-03-25T14:23:54.252Z,11.52
2019-03-25T14:26:25.214Z,11.64
2019-03-25T14:28:56.231Z,11.77
2019-03-25T14:31:27.835Z,11.53
2019-03-25T14:33:58.835Z,11.32
2019-03-25T14:36:29.791Z,11.11
2019-03-25T14:39:01.071Z,11.07
2019-03-25T14:41:32.942Z,11.06
2019-03-25T14:44:04.016Z,11.08
2019-03-25T14:46:35.072Z,11.10
2019-03-25T14:49:06.214Z,11.04
2019-03-25T14:51:37.345Z,11.01
2019-03-25T14:54:08.393Z,11.04
2019-03-25T14:56:39.384Z,11.00
2019-03-25T14:59:10.469Z,10.92
2019-03-25T15:01:41.503Z,10.89
2019-03-25T15:04:12.470Z,10.92
2019-03-25T15:06:43.808Z,10.83
2019-03-25T15:09:14.845Z,10.66
2019-03-25T15:11:45.881Z,10.60
2019-03-25T15:14:17.108Z,10.56
2019-03-25T15:16:48.240Z,10.52
2019-03-25T15:19:19.331Z,10.53
2019-03-25T15:21:51.692Z,10.53
2019-03-25T15:24:22.844Z,10.52
2019-03-25T15:26:54.062Z,10.52
2019-03-25T15:29:25.146Z,10.50
2019-03-25T15:31:56.307Z,10.44
2019-03-25T15:34:27.320Z,10.41
2019-03-25T15:36:58.373Z,10.39
2019-03-25T15:39:29.523Z,10.36
2019-03-25T15:42:00.672Z,10.40
2019-03-25T15:44:32.207Z,10.35
2019-03-25T15:47:03.714Z,10.34
2019-03-25T15:49:35.755Z,10.26
2019-03-25T15:52:06.798Z,10.25
2019-03-25T15:54:37.914Z,10.22
2019-03-25T15:57:08.944Z,10.21
2019-03-25T15:59:40.151Z,10.19
2019-03-25T16:02:11.460Z,10.18
2019-03-25T16:04:42.572Z,10.12
2019-03-25T16:07:14.812Z,10.10
2019-03-25T16:09:46.311Z,10.08
2019-03-25T16:12:17.642Z,10.09
2019-03-25T16:14:48.683Z,10.07
2019-03-25T16:17:19.685Z,10.05
2019-03-25T16:19:51.088Z,10.07
2019-03-25T16:22:22.276Z,10.03
2019-03-25T16:24:53.262Z,10.03
2019-03-25T16:27:25.889Z,10.02
2019-03-25T16:29:56.992Z,9.98
2019-03-25T16:32:29.054Z,9.99
2019-03-25T16:35:00.333Z,9.97
2019-03-25T16:37:31.360Z,10.04
2019-03-25T16:40:02.435Z,10.00
2019-03-25T16:42:33.571Z,10.01
2019-03-25T16:45:05.243Z,10.05
2019-03-25T16:47:36.339Z,10.04
2019-03-25T16:50:07.747Z,10.04
2019-03-25T16:52:38.759Z,10.04
2019-03-25T16:55:09.829Z,10.05
2019-03-25T16:57:40.854Z,10.06
2019-03-25T17:00:12.010Z,10.10
2019-03-25T17:02:43.264Z,10.11
2019-03-25T17:05:14.368Z,10.03
2019-03-25T17:07:45.553Z,9.94
2019-03-25T17:10:16.495Z,9.84
2019-03-25T17:12:47.751Z,9.85
2019-03-25T17:15:18.940Z,9.77
2019-03-25T17:17:50.216Z,9.78
2019-03-25T17:20:21.380Z,9.73
2019-03-25T17:22:52.518Z,9.71
2019-03-25T17:25:23.586Z,9.71
2019-03-25T17:27:54.680Z,9.55
2019-03-25T17:30:25.969Z,9.48
2019-03-25T17:32:57.088Z,9.39
2019-03-25T17:35:28.321Z,9.29
2019-03-25T17:37:59.519Z,9.06
2019-03-25T17:40:30.579Z,8.98
2019-03-25T17:43:01.772Z,8.88
2019-03-25T17:45:32.830Z,8.78
2019-03-25T17:48:04.247Z,8.78
2019-03-25T17:50:35.290Z,8.76
2019-03-25T17:53:06.533Z,8.65
2019-03-25T17:55:37.614Z,8.63
2019-03-25T17:58:08.631Z,8.60
2019-03-25T18:00:51.933Z,8.53
2019-03-25T18:03:24.153Z,8.47
2019-03-25T18:05:55.191Z,8.45
2019-03-25T18:08:26.343Z,8.38
2019-03-25T18:10:57.421Z,8.32
2019-03-25T18:13:28.428Z,8.36
2019-03-25T18:15:59.442Z,8.30
2019-03-25T18:18:30.584Z,8.29
2019-03-25T18:21:01.652Z,8.30
2019-03-25T18:23:32.641Z,8.31
2019-03-25T18:26:03.739Z,8.35
2019-03-25T18:28:34.777Z,8.29
2019-03-25T18:31:05.922Z,8.31
2019-03-25T18:33:37.513Z,8.35
2019-03-25T18:36:10.288Z,8.52
2019-03-25T18:38:41.332Z,8.51
2019-03-25T18:41:12.441Z,8.50
2019-03-25T18:43:43.472Z,8.56
2019-03-25T18:46:14.702Z,8.58
2019-03-25T18:48:45.862Z,8.57
2019-03-25T18:51:16.949Z,8.53
2019-03-25T18:53:47.964Z,8.68
2019-03-25T18:56:19.143Z,8.54
2019-03-25T18:58:50.361Z,8.48
2019-03-25T19:01:21.821Z,8.57
2019-03-25T19:03:52.997Z,8.84
2019-03-25T19:06:24.221Z,8.86
2019-03-25T19:08:55.353Z,8.68
2019-03-25T19:11:31.035Z,8.73
2019-03-25T19:13:59.154Z,8.59
2019-03-25T19:16:30.394Z,8.72
2019-03-25T19:19:01.790Z,8.49
2019-03-25T19:21:33.047Z,8.38
2019-03-25T19:24:04.247Z,8.26
2019-03-25T19:26:35.309Z,8.23
2019-03-25T19:29:06.350Z,8.12
2019-03-25T19:31:37.411Z,8.06
2019-03-25T19:34:08.508Z,7.97
2019-03-25T19:36:39.670Z,8.04
2019-03-25T19:39:10.853Z,8.04
2019-03-25T19:41:41.986Z,7.86
2019-03-25T19:44:13.020Z,7.88
2019-03-25T19:46:44.488Z,7.77
2019-03-25T19:49:15.973Z,7.84
2019-03-25T19:51:48.300Z,7.90
2019-03-25T19:54:19.521Z,7.85
2019-03-25T19:56:50.560Z,7.74
2019-03-25T19:59:21.663Z,7.77
2019-03-25T20:01:52.982Z,7.81
2019-03-25T20:04:24.193Z,7.68
2019-03-25T20:06:55.250Z,7.61
2019-03-25T20:09:26.325Z,7.57
2019-03-25T20:11:57.689Z,7.66
2019-03-25T20:14:30.055Z,7.57
2019-03-25T20:17:01.271Z,7.57
2019-03-25T20:19:32.502Z,7.53
2019-03-25T20:22:04.607Z,7.48
2019-03-25T20:24:35.681Z,7.40
2019-03-25T20:27:06.761Z,7.42
2019-03-25T20:29:37.868Z,7.49
2019-03-25T20:32:09.195Z,7.45
2019-03-25T20:34:40.450Z,7.45
2019-03-25T20:37:11.652Z,7.42
2019-03-25T20:39:43.059Z,7.42
2019-03-25T20:42:14.590Z,7.33
2019-03-25T20:44:45.660Z,7.37
2019-03-25T20:47:17.196Z,7.38
2019-03-25T20:49:48.385Z,7.41
2019-03-25T20:52:19.892Z,7.46
2019-03-25T20:54:51.189Z,7.46
2019-03-25T20:57:22.422Z,7.42
2019-03-25T20:59:53.626Z,7.31
2019-03-25T21:02:24.826Z,7.45
2019-03-25T21:04:56.021Z,7.45
2019-03-25T21:07:27.096Z,7.51
2019-03-25T21:09:58.148Z,7.55
2019-03-25T21:12:29.270Z,7.55
2019-03-25T21:15:00.358Z,7.62
2019-03-25T21:17:31.460Z,7.72
2019-03-25T21:20:02.587Z,7.72
2019-03-25T21:22:33.844Z,7.78
2019-03-25T21:25:06.497Z,7.78
2019-03-25T21:27:37.830Z,7.83
2019-03-25T21:30:09.015Z,7.95
2019-03-25T21:32:40.599Z,7.96
2019-03-25T21:35:11.837Z,7.84
2019-03-25T21:37:43.106Z,7.92
2019-03-25T21:40:14.349Z,7.94
2019-03-25T21:42:45.544Z,7.82
2019-03-25T21:45:16.575Z,7.78
2019-03-25T21:47:47.829Z,7.75
2019-03-25T21:50:18.913Z,7.74
2019-03-25T21:52:50.130Z,7.78
2019-03-25T21:55:21.351Z,7.76
2019-03-25T21:57:52.541Z,7.79
2019-03-25T22:00:23.770Z,7.77
2019-03-25T22:02:54.885Z,7.67
2019-03-25T22:05:26.044Z,7.73
2019-03-25T22:07:57.171Z,7.71
2019-03-25T22:10:28.325Z,7.73
2019-03-25T22:12:59.342Z,7.73
2019-03-25T22:15:30.555Z,7.71
2019-03-25T22:18:01.629Z,7.66
2019-03-25T22:20:32.623Z,7.52
2019-03-25T22:23:03.585Z,7.59
2019-03-25T22:25:34.592Z,7.47
2019-03-25T22:28:05.620Z,7.54
2019-03-25T22:30:36.601Z,7.48
2019-03-25T22:33:07.623Z,7.45
2019-03-25T22:35:38.656Z,7.49
2019-03-25T22:38:09.719Z,7.43
2019-03-25T22:40:40.873Z,7.40
2019-03-25T22:43:11.804Z,7.48
2019-03-25T22:45:42.733Z,7.44
2019-03-25T22:48:13.685Z,7.49
2019-03-25T22:50:46.362Z,7.51
2019-03-25T22:53:17.292Z,7.51
2019-03-25T22:56:33.834Z,7.51
2019-03-25T22:59:04.897Z,7.49
2019-03-25T23:01:35.887Z,7.45
2019-03-25T23:04:08.048Z,7.52
2019-03-25T23:06:39.090Z,7.52
2019-03-25T23:09:10.027Z,7.44
2019-03-25T23:11:40.960Z,7.35
2019-03-25T23:14:11.909Z,7.27
2019-03-25T23:16:42.838Z,7.32
2019-03-25T23:19:13.845Z,7.26
2019-03-25T23:21:44.923Z,7.20
2019-03-25T23:24:15.968Z,7.13
2019-03-25T23:26:46.958Z,7.02
2019-03-25T23:29:17.957Z,7.02
2019-03-25T23:31:49.579Z,7.02
2019-03-25T23:34:20.552Z,6.86
2019-03-25T23:36:51.585Z,6.86
2019-03-25T23:39:25.173Z,6.84
2019-03-25T23:41:56.354Z,6.95
2019-03-25T23:44:27.391Z,6.94
2019-03-25T23:46:58.422Z,6.84
2019-03-25T23:49:29.363Z,6.93
2019-03-25T23:52:00.396Z,6.93
2019-03-25T23:54:31.335Z,6.93
2019-03-25T23:57:02.278Z,6.92
2019-03-25T23:59:33.220Z,6.93
